Time;durP1;ratioP1;P1;durP2;ratioP2;P2;SDS_P1;SDS_P2;PMS_P1;PMS_P2;Temp;Humidity;BMP_temperature;BMP_pressure;BME280_temperature;BME280_humidity;BME280_pressure;Samples;Min_cycle;Max_cycle;Signal;HPM_P1;HPM_P2
2023/02/02 00:00:24;;;;;;;1.05;0.52;;;;;;;;;;5071303;28;20054;-73
2023/02/02 00:02:52;;;;;;;0.43;0.30;;;;;;;;;;5069629;28;20299;-74
2023/02/02 00:05:21;;;;;;;0.52;0.52;;;;;;;;;;5070519;28;20405;-72
2023/02/02 00:07:50;;;;;;;0.73;0.50;;;;;;;;;;5071263;28;20060;-73
2023/02/02 00:10:18;;;;;;;0.30;0.30;;;;;;;;;;5068975;28;20496;-72
2023/02/02 00:12:48;;;;;;;4.18;0.82;;;;;;;;;;5076864;28;20084;-72
2023/02/02 00:15:16;;;;;;;0.30;0.30;;;;;;;;;;5073960;28;20047;-72
2023/02/02 00:17:44;;;;;;;0.20;0.20;;;;;;;;;;5065966;28;20063;-72
2023/02/02 00:20:13;;;;;;;0.20;0.20;;;;;;;;;;5073844;28;20048;-73
2023/02/02 00:22:41;;;;;;;1.08;0.90;;;;;;;;;;5069566;28;20044;-75
2023/02/02 00:25:10;;;;;;;0.10;0.10;;;;;;;;;;5068951;28;20044;-72
2023/02/02 00:27:38;;;;;;;0.10;0.10;;;;;;;;;;5066337;28;20064;-72
2023/02/02 00:30:08;;;;;;;0.20;0.20;;;;;;;;;;5069326;28;20413;-71
2023/02/02 00:32:37;;;;;;;1.85;0.28;;;;;;;;;;5078873;28;20508;-71
2023/02/02 00:35:05;;;;;;;0.50;0.50;;;;;;;;;;5071202;28;20044;-71
2023/02/02 00:37:33;;;;;;;3.05;0.30;;;;;;;;;;5078908;28;20149;-70
2023/02/02 00:40:02;;;;;;;0.93;0.47;;;;;;;;;;5072468;28;20382;-71
2023/02/02 00:42:30;;;;;;;0.22;0.22;;;;;;;;;;5073252;28;20044;-69
2023/02/02 00:45:15;;;;;;;0.25;0.25;;;;;;;;;;5070280;28;20449;-73
2023/02/02 00:47:46;;;;;;;0.13;0.13;;;;;;;;;;5071042;28;20044;-73
2023/02/02 00:50:15;;;;;;;0.10;0.10;;;;;;;;;;5070110;28;20041;-72
2023/02/02 00:52:44;;;;;;;1.33;0.43;;;;;;;;;;5066376;28;20052;-73
2023/02/02 00:55:13;;;;;;;0.20;0.20;;;;;;;;;;5069658;28;20043;-78
2023/02/02 00:57:43;;;;;;;0.45;0.45;;;;;;;;;;5071597;28;20040;-73
2023/02/02 01:00:13;;;;;;;1.17;1.10;;;;;;;;;;5069682;28;20132;-71
2023/02/02 01:02:41;;;;;;;5.00;0.63;;;;;;;;;;5072970;28;20048;-72
2023/02/02 01:05:11;;;;;;;3.42;0.38;;;;;;;;;;5078316;28;20040;-72
2023/02/02 01:07:40;;;;;;;0.98;0.40;;;;;;;;;;5069714;28;20059;-73
2023/02/02 01:10:11;;;;;;;3.50;0.68;;;;;;;;;;5070754;28;20044;-72
2023/02/02 01:12:39;;;;;;;0.32;0.32;;;;;;;;;;5070436;28;20524;-71
2023/02/02 01:15:08;;;;;;;0.20;0.20;;;;;;;;;;5068383;28;20162;-72
2023/02/02 01:17:36;;;;;;;0.45;0.45;;;;;;;;;;5073528;28;20148;-71
2023/02/02 01:20:06;;;;;;;0.17;0.17;;;;;;;;;;5072152;28;20047;-71
2023/02/02 01:22:37;;;;;;;0.20;0.20;;;;;;;;;;5074465;28;20052;-71
2023/02/02 01:25:06;;;;;;;0.17;0.10;;;;;;;;;;5070434;28;20045;-70
2023/02/02 01:27:34;;;;;;;1.27;0.32;;;;;;;;;;5068762;28;20485;-72
2023/02/02 01:30:02;;;;;;;0.40;0.40;;;;;;;;;;5070938;28;20048;-70
2023/02/02 01:32:30;;;;;;;0.75;0.57;;;;;;;;;;5069465;28;20126;-71
2023/02/02 01:34:59;;;;;;;0.20;0.20;;;;;;;;;;5072986;28;20044;-72
2023/02/02 01:37:27;;;;;;;0.10;0.10;;;;;;;;;;5071208;28;20049;-71
2023/02/02 01:39:56;;;;;;;3.90;0.40;;;;;;;;;;5070430;28;20086;-71
2023/02/02 01:42:25;;;;;;;0.50;0.50;;;;;;;;;;5071182;28;20044;-71
2023/02/02 01:45:13;;;;;;;0.10;0.10;;;;;;;;;;5069134;28;20071;-72
2023/02/02 01:47:42;;;;;;;0.30;0.30;;;;;;;;;;5066196;28;20409;-73
2023/02/02 01:50:11;;;;;;;1.30;0.30;;;;;;;;;;5073853;28;20050;-72
2023/02/02 01:52:40;;;;;;;0.85;0.77;;;;;;;;;;5074933;28;20056;-72
2023/02/02 01:55:12;;;;;;;0.45;0.45;;;;;;;;;;5074643;28;20059;-71
2023/02/02 01:57:41;;;;;;;0.20;0.20;;;;;;;;;;5069768;28;20047;-71
2023/02/02 02:00:11;;;;;;;0.70;0.70;;;;;;;;;;5070417;28;20128;-71
2023/02/02 02:02:40;;;;;;;4.25;0.32;;;;;;;;;;5072974;28;20044;-71
2023/02/02 02:05:10;;;;;;;1.45;0.25;;;;;;;;;;5075292;28;20057;-71
2023/02/02 02:07:39;;;;;;;0.10;0.10;;;;;;;;;;5072213;28;20048;-73
2023/02/02 02:10:08;;;;;;;0.63;0.15;;;;;;;;;;5067929;28;20508;-71
2023/02/02 02:12:38;;;;;;;0.28;0.20;;;;;;;;;;5068881;28;20080;-75
2023/02/02 02:18:01;;;;;;;0.30;0.30;;;;;;;;;;5070008;28;20052;-71
2023/02/02 02:26:52;;;;;;;0.13;0.13;;;;;;;;;;5063596;28;20055;-73
2023/02/02 02:29:34;;;;;;;0.25;0.25;;;;;;;;;;5069167;28;20524;-74
2023/02/02 02:32:09;;;;;;;0.20;0.20;;;;;;;;;;5070856;28;20493;-72
2023/02/02 02:34:44;;;;;;;1.95;0.90;;;;;;;;;;5071944;28;20096;-73
2023/02/02 02:37:17;;;;;;;0.40;0.40;;;;;;;;;;5072863;28;20060;-78
2023/02/02 02:39:48;;;;;;;0.30;0.30;;;;;;;;;;5075326;28;20044;-73
2023/02/02 02:42:19;;;;;;;0.68;0.45;;;;;;;;;;5074080;28;20048;-72
2023/02/02 02:44:48;;;;;;;1.13;0.32;;;;;;;;;;5068527;28;20040;-73
2023/02/02 02:47:18;;;;;;;2.53;0.63;;;;;;;;;;5071340;28;20049;-71
2023/02/02 02:49:47;;;;;;;0.30;0.30;;;;;;;;;;5075520;28;20136;-71
2023/02/02 02:52:16;;;;;;;0.70;0.70;;;;;;;;;;5070835;28;20417;-71
2023/02/02 02:54:48;;;;;;;3.25;0.85;;;;;;;;;;5075005;28;20127;-76
2023/02/02 02:57:27;;;;;;;0.10;0.10;;;;;;;;;;5073138;28;20111;-71
2023/02/02 02:59:59;;;;;;;5.05;0.38;;;;;;;;;;5073679;28;20052;-77
2023/02/02 03:02:34;;;;;;;1.20;1.10;;;;;;;;;;5077140;28;20044;-71
2023/02/02 03:05:08;;;;;;;0.20;0.15;;;;;;;;;;5072929;28;20062;-73
2023/02/02 03:07:39;;;;;;;0.30;0.30;;;;;;;;;;5073112;28;20523;-71
2023/02/02 03:10:08;;;;;;;1.55;0.52;;;;;;;;;;5074847;28;20070;-71
2023/02/02 03:12:43;;;;;;;0.82;0.60;;;;;;;;;;5085418;28;20048;-71
2023/02/02 03:15:12;;;;;;;0.88;0.38;;;;;;;;;;5079539;28;20048;-71
2023/02/02 03:17:42;;;;;;;0.28;0.20;;;;;;;;;;5079707;28;20037;-70
2023/02/02 03:20:11;;;;;;;0.15;0.15;;;;;;;;;;5075012;28;20491;-72
2023/02/02 03:22:39;;;;;;;0.88;0.35;;;;;;;;;;5078861;28;20052;-72
2023/02/02 03:25:10;;;;;;;0.73;0.73;;;;;;;;;;5074299;28;20057;-74
2023/02/02 03:27:38;;;;;;;1.38;1.38;;;;;;;;;;5072006;28;20092;-72
2023/02/02 03:30:07;;;;;;;0.28;0.22;;;;;;;;;;5080689;28;20040;-71
2023/02/02 03:32:35;;;;;;;0.40;0.40;;;;;;;;;;5082176;28;20053;-71
2023/02/02 03:35:05;;;;;;;0.30;0.30;;;;;;;;;;5074182;28;20056;-71
2023/02/02 03:37:33;;;;;;;0.20;0.20;;;;;;;;;;5071645;28;20048;-71
2023/02/02 03:40:02;;;;;;;0.20;0.20;;;;;;;;;;5078282;28;20051;-71
2023/02/02 03:42:30;;;;;;;1.35;1.15;;;;;;;;;;5068603;28;20504;-71
2023/02/02 03:44:58;;;;;;;3.13;0.52;;;;;;;;;;5077382;28;20052;-77
2023/02/02 03:47:28;;;;;;;1.15;0.65;;;;;;;;;;5076470;28;20549;-75
2023/02/02 03:49:56;;;;;;;0.10;0.10;;;;;;;;;;5078230;28;20404;-72
2023/02/02 03:52:27;;;;;;;0.90;0.50;;;;;;;;;;5073960;28;20053;-74
2023/02/02 03:54:55;;;;;;;3.63;1.15;;;;;;;;;;5076662;28;20056;-77
2023/02/02 03:57:23;;;;;;;0.40;0.40;;;;;;;;;;5074424;28;20066;-73
2023/02/02 03:59:51;;;;;;;0.13;0.13;;;;;;;;;;5072927;28;20052;-73
2023/02/02 04:02:20;;;;;;;0.10;0.10;;;;;;;;;;5070804;28;20233;-73
2023/02/02 04:04:48;;;;;;;0.20;0.20;;;;;;;;;;5073849;28;20041;-73
2023/02/02 04:07:16;;;;;;;1.00;0.35;;;;;;;;;;5073828;28;20044;-77
2023/02/02 04:09:46;;;;;;;0.43;0.43;;;;;;;;;;5067657;28;20051;-71
2023/02/02 04:12:14;;;;;;;0.10;0.10;;;;;;;;;;5072145;28;20040;-73
2023/02/02 04:14:42;;;;;;;0.30;0.30;;;;;;;;;;5081893;28;20110;-73
2023/02/02 04:17:11;;;;;;;0.50;0.40;;;;;;;;;;5065539;28;20135;-71
2023/02/02 04:19:39;;;;;;;0.20;0.20;;;;;;;;;;5073022;28;20404;-72
2023/02/02 04:22:07;;;;;;;0.50;0.50;;;;;;;;;;5068413;28;20048;-72
2023/02/02 04:24:36;;;;;;;0.22;0.22;;;;;;;;;;5077934;28;20044;-72
2023/02/02 04:27:06;;;;;;;1.00;0.75;;;;;;;;;;5075328;28;20074;-72
2023/02/02 04:29:35;;;;;;;1.90;1.38;;;;;;;;;;5066065;28;20091;-75
2023/02/02 04:32:03;;;;;;;0.50;0.35;;;;;;;;;;5079802;28;20040;-72
2023/02/02 04:34:31;;;;;;;1.30;1.23;;;;;;;;;;5070749;28;20051;-71
2023/02/02 04:37:00;;;;;;;0.93;0.50;;;;;;;;;;5060989;28;20099;-72
2023/02/02 04:39:29;;;;;;;0.52;0.30;;;;;;;;;;5074742;28;20041;-71
2023/02/02 04:41:58;;;;;;;0.40;0.13;;;;;;;;;;5067631;28;20495;-71
2023/02/02 04:44:27;;;;;;;0.25;0.17;;;;;;;;;;5069853;28;20059;-76
2023/02/02 04:46:56;;;;;;;0.40;0.40;;;;;;;;;;5070558;28;20044;-75
2023/02/02 04:49:24;;;;;;;0.10;0.10;;;;;;;;;;5067483;28;20040;-70
2023/02/02 04:51:52;;;;;;;0.43;0.43;;;;;;;;;;5069085;28;20066;-73
2023/02/02 04:54:20;;;;;;;0.17;0.17;;;;;;;;;;5069040;28;20051;-72
2023/02/02 04:56:48;;;;;;;3.58;0.32;;;;;;;;;;5070487;28;20386;-71
2023/02/02 04:59:17;;;;;;;1.10;0.38;;;;;;;;;;5072725;28;20048;-70
2023/02/02 05:01:47;;;;;;;0.70;0.35;;;;;;;;;;5071712;28;20040;-73
2023/02/02 05:04:15;;;;;;;11.60;0.40;;;;;;;;;;5072663;28;20044;-74
2023/02/02 05:06:43;;;;;;;1.17;1.15;;;;;;;;;;5077665;28;20068;-71
2023/02/02 05:09:12;;;;;;;0.57;0.43;;;;;;;;;;5071748;28;20071;-73
2023/02/02 05:11:43;;;;;;;0.40;0.40;;;;;;;;;;5067789;28;20054;-72
2023/02/02 05:14:12;;;;;;;0.70;0.45;;;;;;;;;;5072691;28;20151;-74
2023/02/02 05:16:40;;;;;;;0.28;0.28;;;;;;;;;;5077972;28;20048;-72
2023/02/02 05:19:10;;;;;;;0.88;0.52;;;;;;;;;;5068084;28;20064;-75
2023/02/02 05:21:38;;;;;;;0.52;0.40;;;;;;;;;;5076017;28;20044;-73
2023/02/02 05:24:07;;;;;;;0.10;0.10;;;;;;;;;;5069631;28;20059;-72
2023/02/02 05:26:35;;;;;;;1.30;0.20;;;;;;;;;;5066239;28;20044;-72
2023/02/02 05:29:05;;;;;;;0.50;0.50;;;;;;;;;;5065263;28;20040;-77
2023/02/02 05:31:33;;;;;;;2.33;0.25;;;;;;;;;;5073724;28;20067;-73
2023/02/02 05:34:02;;;;;;;0.10;0.10;;;;;;;;;;5070388;28;20048;-75
2023/02/02 05:36:31;;;;;;;0.30;0.30;;;;;;;;;;5079393;28;20055;-72
2023/02/02 05:39:00;;;;;;;0.60;0.40;;;;;;;;;;5071712;28;20044;-74
2023/02/02 05:41:28;;;;;;;5.88;0.32;;;;;;;;;;5070650;28;20050;-74
2023/02/02 05:43:59;;;;;;;0.40;0.40;;;;;;;;;;5065935;28;20056;-72
2023/02/02 05:46:27;;;;;;;12.15;0.68;;;;;;;;;;5061886;28;20048;-72
2023/02/02 05:48:57;;;;;;;0.20;0.20;;;;;;;;;;5068471;28;20055;-72
2023/02/02 05:51:28;;;;;;;3.83;0.40;;;;;;;;;;5067428;28;20052;-73
2023/02/02 05:53:58;;;;;;;0.20;0.20;;;;;;;;;;5068824;28;20053;-74
2023/02/02 05:56:28;;;;;;;0.13;0.13;;;;;;;;;;5071661;28;20074;-71
2023/02/02 05:58:56;;;;;;;1.15;1.02;;;;;;;;;;5066782;28;20512;-73
2023/02/02 06:01:24;;;;;;;0.20;0.20;;;;;;;;;;5066483;28;20044;-71
2023/02/02 06:03:53;;;;;;;0.20;0.20;;;;;;;;;;5065747;28;20060;-74
2023/02/02 06:06:21;;;;;;;0.55;0.55;;;;;;;;;;5072993;28;20461;-74
2023/02/02 06:08:49;;;;;;;0.25;0.20;;;;;;;;;;5069996;28;20496;-73
2023/02/02 06:11:19;;;;;;;0.90;0.57;;;;;;;;;;5077976;28;20045;-72
2023/02/02 06:13:47;;;;;;;0.30;0.30;;;;;;;;;;5072793;28;20055;-73
2023/02/02 06:16:16;;;;;;;0.20;0.20;;;;;;;;;;5069591;28;20143;-72
2023/02/02 06:18:44;;;;;;;0.25;0.25;;;;;;;;;;5073326;28;20044;-73
2023/02/02 06:21:13;;;;;;;0.57;0.30;;;;;;;;;;5076485;28;20055;-73
2023/02/02 06:23:44;;;;;;;1.83;0.38;;;;;;;;;;5085115;28;20043;-74
2023/02/02 06:26:12;;;;;;;0.20;0.20;;;;;;;;;;5083151;28;20045;-73
2023/02/02 06:28:42;;;;;;;1.75;0.40;;;;;;;;;;5072263;28;20037;-72
2023/02/02 06:31:12;;;;;;;0.20;0.20;;;;;;;;;;5071139;28;20451;-73
2023/02/02 06:33:40;;;;;;;0.10;0.10;;;;;;;;;;5073326;28;20053;-73
2023/02/02 06:36:08;;;;;;;0.77;0.32;;;;;;;;;;5069751;28;20063;-73
2023/02/02 06:38:37;;;;;;;1.10;0.35;;;;;;;;;;5072472;28;20573;-74
2023/02/02 06:41:06;;;;;;;0.40;0.40;;;;;;;;;;5071238;28;20045;-71
2023/02/02 06:43:34;;;;;;;0.38;0.38;;;;;;;;;;5068551;28;20049;-71
2023/02/02 06:46:04;;;;;;;6.65;1.15;;;;;;;;;;5072822;28;20060;-73
2023/02/02 06:48:32;;;;;;;0.40;0.40;;;;;;;;;;5069624;28;20048;-73
2023/02/02 06:51:01;;;;;;;0.30;0.25;;;;;;;;;;5072270;28;20044;-73
2023/02/02 06:53:29;;;;;;;2.35;1.00;;;;;;;;;;5073844;28;20109;-71
2023/02/02 06:55:59;;;;;;;0.20;0.20;;;;;;;;;;5074019;28;20057;-73
2023/02/02 06:58:28;;;;;;;0.25;0.25;;;;;;;;;;5073022;28;20049;-73
2023/02/02 07:01:03;;;;;;;0.35;0.35;;;;;;;;;;5072094;28;20053;-75
2023/02/02 07:03:33;;;;;;;0.30;0.30;;;;;;;;;;5074867;28;20144;-72
2023/02/02 07:06:11;;;;;;;0.20;0.20;;;;;;;;;;5073086;28;20048;-73
2023/02/02 07:08:39;;;;;;;0.17;0.17;;;;;;;;;;5069531;28;20045;-74
2023/02/02 07:11:08;;;;;;;0.52;0.50;;;;;;;;;;5069989;28;20049;-74
2023/02/02 07:13:44;;;;;;;0.47;0.40;;;;;;;;;;5073165;28;20044;-73
2023/02/02 07:16:13;;;;;;;0.10;0.10;;;;;;;;;;5069983;28;20143;-74
2023/02/02 07:18:43;;;;;;;0.25;0.25;;;;;;;;;;5072427;28;20087;-71
2023/02/02 07:21:16;;;;;;;0.88;0.88;;;;;;;;;;5080870;28;20381;-73
2023/02/02 07:23:45;;;;;;;0.70;0.70;;;;;;;;;;5060399;28;20060;-72
2023/02/02 07:26:14;;;;;;;2.85;0.70;;;;;;;;;;5071994;28;20059;-71
2023/02/02 07:28:42;;;;;;;0.30;0.30;;;;;;;;;;5072215;28;20056;-72
2023/02/02 07:31:15;;;;;;;0.30;0.30;;;;;;;;;;5070837;28;20068;-73
2023/02/02 07:33:45;;;;;;;0.40;0.40;;;;;;;;;;5070288;28;20080;-71
2023/02/02 07:36:15;;;;;;;0.30;0.30;;;;;;;;;;5073248;28;20493;-70
2023/02/02 07:38:43;;;;;;;1.80;0.40;;;;;;;;;;5073001;28;20488;-72
2023/02/02 07:41:12;;;;;;;2.17;1.67;;;;;;;;;;5071852;28;20171;-75
2023/02/02 07:43:40;;;;;;;0.20;0.20;;;;;;;;;;5065948;28;20080;-72
2023/02/02 07:46:13;;;;;;;0.40;0.40;;;;;;;;;;5068487;28;20509;-76
2023/02/02 07:48:41;;;;;;;2.80;1.23;;;;;;;;;;5063688;28;20037;-70
2023/02/02 07:51:12;;;;;;;0.40;0.40;;;;;;;;;;5072008;28;20048;-73
2023/02/02 07:53:43;;;;;;;0.43;0.43;;;;;;;;;;5072668;28;20036;-71
2023/02/02 07:56:12;;;;;;;0.47;0.20;;;;;;;;;;5071422;28;20087;-73
2023/02/02 07:58:41;;;;;;;1.17;0.32;;;;;;;;;;5072226;28;20076;-74
2023/02/02 08:01:10;;;;;;;0.43;0.43;;;;;;;;;;5076250;28;20481;-71
2023/02/02 08:03:39;;;;;;;0.52;0.30;;;;;;;;;;5070292;28;20075;-72
2023/02/02 08:06:14;;;;;;;0.28;0.28;;;;;;;;;;5072870;28;20048;-71
2023/02/02 08:08:43;;;;;;;1.33;0.32;;;;;;;;;;5070674;28;20067;-73
2023/02/02 08:11:13;;;;;;;0.90;0.68;;;;;;;;;;5071541;28;20465;-71
2023/02/02 08:13:42;;;;;;;2.72;0.63;;;;;;;;;;5070944;28;20481;-73
2023/02/02 08:16:11;;;;;;;1.13;0.50;;;;;;;;;;5072292;28;20110;-77
2023/02/02 08:22:03;;;;;;;5.30;0.30;;;;;;;;;;5085852;28;20190;-73
2023/02/02 08:24:32;;;;;;;0.50;0.45;;;;;;;;;;5072120;28;20082;-74
2023/02/02 08:27:00;;;;;;;0.32;0.32;;;;;;;;;;5070346;28;20127;-75
2023/02/02 08:29:29;;;;;;;1.13;0.57;;;;;;;;;;5070516;28;20076;-72
2023/02/02 08:31:57;;;;;;;0.60;0.30;;;;;;;;;;5067008;28;20044;-72
2023/02/02 08:34:26;;;;;;;0.20;0.20;;;;;;;;;;5067982;28;20098;-72
2023/02/02 08:36:54;;;;;;;0.22;0.22;;;;;;;;;;5070308;28;20060;-73
2023/02/02 08:39:24;;;;;;;0.30;0.30;;;;;;;;;;5069454;28;20412;-73
2023/02/02 08:41:55;;;;;;;0.43;0.43;;;;;;;;;;5066224;28;20106;-71
2023/02/02 08:44:24;;;;;;;2.88;0.60;;;;;;;;;;5071561;28;20043;-72
2023/02/02 08:46:55;;;;;;;0.30;0.30;;;;;;;;;;5067647;28;20037;-71
2023/02/02 08:49:24;;;;;;;0.17;0.17;;;;;;;;;;5068361;28;20056;-72
2023/02/02 08:51:53;;;;;;;0.30;0.25;;;;;;;;;;5070511;28;20049;-73
2023/02/02 08:54:22;;;;;;;0.20;0.20;;;;;;;;;;5060359;28;20044;-72
2023/02/02 08:56:52;;;;;;;0.30;0.30;;;;;;;;;;5070491;28;20053;-72
2023/02/02 08:59:21;;;;;;;8.68;0.57;;;;;;;;;;5068155;28;20044;-72
2023/02/02 09:01:49;;;;;;;0.22;0.22;;;;;;;;;;5069226;28;20052;-73
2023/02/02 09:04:18;;;;;;;0.73;0.38;;;;;;;;;;5071593;28;20154;-73
2023/02/02 09:06:46;;;;;;;0.85;0.47;;;;;;;;;;5069044;28;20060;-73
2023/02/02 09:09:15;;;;;;;0.20;0.20;;;;;;;;;;5068720;28;20485;-73
2023/02/02 09:11:44;;;;;;;0.60;0.28;;;;;;;;;;5073064;28;20418;-72
2023/02/02 09:14:14;;;;;;;0.98;0.98;;;;;;;;;;5063158;28;20132;-72
2023/02/02 09:16:43;;;;;;;2.05;0.40;;;;;;;;;;5069438;28;20199;-72
2023/02/02 09:19:11;;;;;;;0.28;0.28;;;;;;;;;;5068300;28;20511;-72
2023/02/02 09:21:40;;;;;;;0.50;0.50;;;;;;;;;;5070945;28;20040;-73
2023/02/02 09:24:09;;;;;;;3.22;0.68;;;;;;;;;;5070396;28;20072;-75
2023/02/02 09:26:39;;;;;;;0.43;0.43;;;;;;;;;;5068617;28;20187;-73
2023/02/02 09:29:08;;;;;;;0.60;0.30;;;;;;;;;;5068348;28;20401;-73
2023/02/02 09:31:38;;;;;;;0.40;0.40;;;;;;;;;;5066976;28;20521;-73
2023/02/02 09:34:08;;;;;;;0.30;0.30;;;;;;;;;;5069954;28;20455;-71
2023/02/02 09:36:37;;;;;;;0.95;0.45;;;;;;;;;;5074998;28;20098;-71
2023/02/02 09:39:06;;;;;;;3.50;0.30;;;;;;;;;;5067599;28;20047;-72
2023/02/02 09:41:45;;;;;;;0.40;0.40;;;;;;;;;;5068805;28;20040;-73
2023/02/02 09:44:17;;;;;;;0.60;0.35;;;;;;;;;;5071796;28;20102;-73
2023/02/02 09:46:51;;;;;;;0.32;0.32;;;;;;;;;;5076571;28;20044;-74
2023/02/02 09:49:22;;;;;;;1.00;0.77;;;;;;;;;;5069634;28;20054;-72
2023/02/02 09:51:55;;;;;;;0.47;0.35;;;;;;;;;;5071124;28;20143;-70
2023/02/02 09:54:26;;;;;;;1.15;0.68;;;;;;;;;;5069141;28;20485;-71
2023/02/02 09:56:59;;;;;;;7.82;0.73;;;;;;;;;;5073848;28;20052;-73
2023/02/02 09:59:30;;;;;;;9.95;0.80;;;;;;;;;;5069906;28;20401;-73
2023/02/02 10:02:04;;;;;;;0.28;0.28;;;;;;;;;;5075626;28;20204;-75
2023/02/02 10:04:35;;;;;;;0.40;0.40;;;;;;;;;;5074907;28;20040;-72
2023/02/02 10:07:08;;;;;;;0.38;0.38;;;;;;;;;;5068278;28;20844;-70
2023/02/02 10:09:40;;;;;;;0.40;0.35;;;;;;;;;;5069253;28;20040;-71
2023/02/02 10:12:17;;;;;;;0.70;0.43;;;;;;;;;;5071772;28;20472;-73
2023/02/02 10:14:50;;;;;;;0.30;0.30;;;;;;;;;;5070322;28;20102;-73
2023/02/02 10:17:31;;;;;;;1.38;0.40;;;;;;;;;;5067550;28;20131;-73
2023/02/02 10:20:03;;;;;;;0.73;0.47;;;;;;;;;;5069853;28;20087;-73
2023/02/02 10:22:33;;;;;;;0.20;0.20;;;;;;;;;;5078095;28;20139;-71
2023/02/02 10:25:02;;;;;;;1.55;0.85;;;;;;;;;;5070134;28;20048;-72
2023/02/02 10:27:34;;;;;;;0.30;0.30;;;;;;;;;;5066602;28;20045;-71
2023/02/02 10:30:04;;;;;;;0.63;0.57;;;;;;;;;;5068404;28;20052;-73
2023/02/02 10:32:35;;;;;;;0.25;0.25;;;;;;;;;;5073257;28;20076;-74
2023/02/02 10:35:08;;;;;;;3.13;0.68;;;;;;;;;;5070757;28;20412;-71
2023/02/02 10:37:46;;;;;;;0.40;0.40;;;;;;;;;;5071485;28;20397;-72
2023/02/02 10:40:18;;;;;;;5.20;0.85;;;;;;;;;;5061038;28;20075;-72
2023/02/02 10:45:38;;;;;;;0.20;0.20;;;;;;;;;;5066311;28;20064;-73
2023/02/02 10:48:14;;;;;;;0.47;0.47;;;;;;;;;;5068759;28;20064;-71
2023/02/02 10:50:43;;;;;;;2.13;0.45;;;;;;;;;;5073993;28;20045;-73
2023/02/02 10:53:13;;;;;;;0.63;0.63;;;;;;;;;;5073914;28;20048;-75
2023/02/02 10:55:45;;;;;;;1.10;0.75;;;;;;;;;;5072706;28;20136;-73
2023/02/02 10:58:19;;;;;;;0.10;0.10;;;;;;;;;;5071461;28;20098;-73
2023/02/02 11:00:50;;;;;;;0.73;0.52;;;;;;;;;;5074254;28;20135;-70
2023/02/02 11:03:21;;;;;;;1.85;0.63;;;;;;;;;;5073576;28;20059;-73
2023/02/02 11:08:51;;;;;;;0.40;0.40;;;;;;;;;;5069360;28;20048;-71
2023/02/02 11:11:21;;;;;;;0.20;0.20;;;;;;;;;;5071762;28;20043;-72
2023/02/02 11:13:51;;;;;;;0.50;0.50;;;;;;;;;;5072668;28;20048;-71
2023/02/02 11:16:25;;;;;;;0.47;0.47;;;;;;;;;;5077028;28;20040;-73
2023/02/02 11:19:22;;;;;;;0.35;0.30;;;;;;;;;;5075560;28;20067;-71
2023/02/02 11:21:51;;;;;;;4.32;0.50;;;;;;;;;;5071136;28;20052;-73
2023/02/02 11:24:22;;;;;;;0.55;0.32;;;;;;;;;;5072298;28;20060;-72
2023/02/02 11:26:54;;;;;;;0.10;0.10;;;;;;;;;;5072029;28;20389;-74
2023/02/02 11:29:25;;;;;;;0.40;0.40;;;;;;;;;;5070613;28;20052;-73
2023/02/02 11:31:53;;;;;;;1.08;0.73;;;;;;;;;;5074386;28;20409;-74
2023/02/02 11:34:24;;;;;;;2.85;0.47;;;;;;;;;;5071915;28;20067;-74
2023/02/02 11:36:59;;;;;;;0.17;0.17;;;;;;;;;;5072620;28;20052;-74
2023/02/02 11:39:28;;;;;;;0.40;0.40;;;;;;;;;;5068598;28;20040;-72
2023/02/02 11:42:01;;;;;;;0.30;0.25;;;;;;;;;;5073415;28;20044;-72
2023/02/02 11:44:31;;;;;;;0.40;0.30;;;;;;;;;;5072549;28;20043;-72
2023/02/02 11:47:01;;;;;;;0.10;0.10;;;;;;;;;;5071812;28;20048;-72
2023/02/02 11:49:38;;;;;;;0.35;0.35;;;;;;;;;;5069118;28;20048;-73
2023/02/02 11:52:09;;;;;;;0.73;0.73;;;;;;;;;;5068315;28;20064;-73
2023/02/02 11:54:46;;;;;;;0.45;0.43;;;;;;;;;;5063959;28;20037;-72
2023/02/02 11:57:18;;;;;;;0.15;0.15;;;;;;;;;;5061757;28;20084;-73
2023/02/02 11:59:47;;;;;;;3.42;0.50;;;;;;;;;;5048040;28;20059;-73
2023/02/02 12:02:23;;;;;;;1.27;0.20;;;;;;;;;;5066600;28;20056;-71
2023/02/02 12:04:54;;;;;;;1.38;1.05;;;;;;;;;;5056213;28;20099;-74
2023/02/02 12:07:25;;;;;;;0.20;0.20;;;;;;;;;;5055020;28;20057;-72
2023/02/02 12:09:54;;;;;;;1.75;0.55;;;;;;;;;;5058414;28;20098;-75
2023/02/02 12:12:33;;;;;;;1.60;0.60;;;;;;;;;;5064668;28;20045;-73
2023/02/02 12:15:06;;;;;;;0.30;0.30;;;;;;;;;;5062794;28;20139;-75
2023/02/02 12:17:39;;;;;;;0.28;0.28;;;;;;;;;;5056385;28;20454;-73
2023/02/02 12:20:22;;;;;;;0.85;0.30;;;;;;;;;;5050716;28;20563;-72
2023/02/02 12:22:59;;;;;;;0.32;0.32;;;;;;;;;;5055753;28;20041;-78
2023/02/02 12:25:42;;;;;;;0.25;0.25;;;;;;;;;;5052777;28;20140;-72
2023/02/02 12:28:17;;;;;;;0.28;0.28;;;;;;;;;;5036568;28;20094;-80
2023/02/02 12:30:45;;;;;;;;;;;;;;;;;;5054825;28;20048;-76
2023/02/02 12:33:22;;;;;;;0.30;0.30;;;;;;;;;;5060714;28;20330;-78
2023/02/02 12:36:09;;;;;;;12.82;0.60;;;;;;;;;;5054503;28;20051;-74
2023/02/02 12:38:47;;;;;;;2.05;0.63;;;;;;;;;;5050853;28;20069;-74
2023/02/02 12:41:20;;;;;;;0.20;0.20;;;;;;;;;;5046838;28;20060;-74
2023/02/02 12:43:51;;;;;;;0.95;0.63;;;;;;;;;;5048398;28;20152;-73
2023/02/02 12:46:34;;;;;;;0.10;0.10;;;;;;;;;;5051852;28;20053;-72
2023/02/02 12:49:05;;;;;;;1.25;1.13;;;;;;;;;;5046683;28;20048;-73
2023/02/02 12:51:41;;;;;;;0.38;0.38;;;;;;;;;;5049753;28;20107;-77
2023/02/02 12:54:22;;;;;;;0.57;0.35;;;;;;;;;;5045881;28;20053;-70
2023/02/02 12:57:07;;;;;;;2.92;0.80;;;;;;;;;;5049300;28;20049;-72
2023/02/02 12:59:47;;;;;;;0.43;0.30;;;;;;;;;;5047939;28;20098;-72
2023/02/02 13:02:19;;;;;;;1.80;1.17;;;;;;;;;;5048756;28;20068;-71
2023/02/02 13:04:56;;;;;;;0.52;0.52;;;;;;;;;;5044421;28;20489;-76
2023/02/02 13:07:29;;;;;;;0.40;0.40;;;;;;;;;;5048501;28;20056;-72
2023/02/02 13:10:02;;;;;;;0.30;0.20;;;;;;;;;;5049221;28;20405;-72
2023/02/02 13:12:33;;;;;;;0.30;0.22;;;;;;;;;;5047352;28;20048;-72
2023/02/02 13:15:06;;;;;;;0.15;0.15;;;;;;;;;;5051313;28;20040;-71
2023/02/02 13:17:37;;;;;;;0.20;0.20;;;;;;;;;;5047142;28;20033;-72
2023/02/02 13:20:07;;;;;;;1.55;0.73;;;;;;;;;;5049218;28;20094;-71
2023/02/02 13:22:39;;;;;;;0.40;0.40;;;;;;;;;;5049616;28;20053;-71
2023/02/02 13:25:10;;;;;;;0.30;0.30;;;;;;;;;;5046202;28;20409;-73
2023/02/02 13:27:39;;;;;;;0.63;0.63;;;;;;;;;;5044848;28;20053;-77
2023/02/02 13:30:14;;;;;;;0.20;0.20;;;;;;;;;;5046186;28;20033;-73
2023/02/02 13:32:42;;;;;;;;;;;;;;;;;;5044565;28;20067;-71
2023/02/02 13:35:16;;;;;;;0.77;0.73;;;;;;;;;;5047869;28;20296;-72
2023/02/02 13:37:50;;;;;;;0.38;0.38;;;;;;;;;;5050416;28;20448;-72
2023/02/02 13:40:24;;;;;;;0.93;0.50;;;;;;;;;;5044924;28;20053;-72
2023/02/02 13:42:55;;;;;;;5.15;0.35;;;;;;;;;;5045643;28;20084;-71
2023/02/02 13:45:36;;;;;;;0.57;0.55;;;;;;;;;;5048436;28;20098;-73
2023/02/02 13:48:09;;;;;;;0.30;0.30;;;;;;;;;;5044217;28;20052;-72
2023/02/02 13:50:43;;;;;;;0.20;0.20;;;;;;;;;;5041366;28;20128;-74
2023/02/02 13:53:22;;;;;;;0.20;0.20;;;;;;;;;;5062252;28;20049;-74
2023/02/02 13:56:03;;;;;;;0.10;0.10;;;;;;;;;;5070040;28;20178;-73
2023/02/02 13:58:45;;;;;;;1.95;0.52;;;;;;;;;;5068414;28;20381;-73
2023/02/02 14:01:14;;;;;;;2.22;0.40;;;;;;;;;;5073001;28;20067;-72
2023/02/02 14:03:44;;;;;;;0.38;0.38;;;;;;;;;;5063030;28;20381;-74
2023/02/02 14:06:15;;;;;;;0.82;0.68;;;;;;;;;;5069572;28;20072;-75
2023/02/02 14:08:47;;;;;;;0.50;0.50;;;;;;;;;;5066942;28;20133;-76
2023/02/02 14:11:21;;;;;;;0.47;0.47;;;;;;;;;;5072412;28;20040;-73
2023/02/02 14:16:51;;;;;;;0.85;0.40;;;;;;;;;;5069224;28;20067;-73
2023/02/02 14:19:34;;;;;;;1.27;1.27;;;;;;;;;;5067208;28;20087;-73
2023/02/02 14:22:18;;;;;;;0.20;0.20;;;;;;;;;;5075288;28;20132;-73
2023/02/02 14:24:50;;;;;;;1.13;0.65;;;;;;;;;;5063635;28;20048;-73
2023/02/02 14:27:45;;;;;;;0.38;0.38;;;;;;;;;;5069610;28;20063;-75
2023/02/02 14:30:16;;;;;;;;;;;;;;;;;;5014026;28;20056;-76
2023/02/02 14:32:45;;;;;;;0.70;0.32;;;;;;;;;;5069189;28;19935;-75
2023/02/02 14:35:34;;;;;;;1.85;0.40;;;;;;;;;;5071801;28;20047;-75
2023/02/02 14:38:06;;;;;;;1.52;0.50;;;;;;;;;;5060746;28;20135;-75
2023/02/02 14:40:43;;;;;;;0.85;0.85;;;;;;;;;;5069090;28;20068;-74
2023/02/02 14:46:22;;;;;;;0.10;0.10;;;;;;;;;;5069512;28;20044;-74
2023/02/02 14:49:08;;;;;;;0.15;0.15;;;;;;;;;;5069874;28;20056;-76
2023/02/02 14:51:46;;;;;;;0.28;0.28;;;;;;;;;;5073085;28;20056;-73
2023/02/02 14:54:20;;;;;;;0.20;0.20;;;;;;;;;;5060007;28;20041;-75
2023/02/02 14:56:53;;;;;;;0.25;0.25;;;;;;;;;;5073826;28;20103;-72
2023/02/02 14:59:23;;;;;;;1.40;0.50;;;;;;;;;;5071583;28;20049;-75
2023/02/02 15:02:00;;;;;;;0.30;0.30;;;;;;;;;;5072090;28;20052;-75
2023/02/02 15:04:29;;;;;;;0.40;0.17;;;;;;;;;;5066129;28;20080;-74
2023/02/02 15:07:17;;;;;;;0.17;0.17;;;;;;;;;;5071510;28;20055;-73
2023/02/02 15:09:46;;;;;;;0.30;0.30;;;;;;;;;;5045608;28;20048;-77
2023/02/02 15:12:36;;;;;;;0.30;0.30;;;;;;;;;;5066233;28;20083;-74
2023/02/02 15:15:19;;;;;;;1.27;0.45;;;;;;;;;;5069991;28;20045;-75
2023/02/02 15:17:55;;;;;;;5.25;0.55;;;;;;;;;;5075894;28;20500;-72
2023/02/02 15:20:27;;;;;;;6.07;0.35;;;;;;;;;;5070115;28;20447;-74
2023/02/02 15:22:59;;;;;;;0.17;0.17;;;;;;;;;;5072522;28;20105;-73
2023/02/02 15:25:31;;;;;;;0.25;0.25;;;;;;;;;;5069913;28;20061;-73
2023/02/02 15:28:03;;;;;;;0.10;0.10;;;;;;;;;;5066781;28;20068;-74
2023/02/02 15:30:33;;;;;;;0.20;0.20;;;;;;;;;;5070249;28;20101;-73